createdAt,value
2023-05-08T00:02:22.830Z,16.33
2023-05-08T00:04:49.560Z,18.35
2023-05-08T00:07:16.162Z,18.73
2023-05-08T00:09:42.727Z,17.65
2023-05-08T00:12:09.333Z,18.58
2023-05-08T00:14:36.225Z,17.97
2023-05-08T00:17:03.144Z,19.00
2023-05-08T00:19:29.910Z,23.27
2023-05-08T00:21:56.529Z,21.60
2023-05-08T00:24:23.231Z,22.00
2023-05-08T00:26:49.986Z,22.27
2023-05-08T00:29:16.568Z,22.55
2023-05-08T00:31:43.167Z,21.52
2023-05-08T00:34:09.845Z,20.58
2023-05-08T00:36:36.473Z,20.70
2023-05-08T00:39:03.416Z,18.93
2023-05-08T00:41:30.080Z,20.05
2023-05-08T00:43:56.640Z,22.45
2023-05-08T00:46:23.671Z,19.20
2023-05-08T00:48:50.672Z,19.25
2023-05-08T00:51:17.732Z,19.50
2023-05-08T00:53:45.460Z,19.63
2023-05-08T00:56:14.292Z,18.95
2023-05-08T00:58:42.004Z,20.13
2023-05-08T01:01:08.994Z,18.60
2023-05-08T01:03:36.732Z,20.47
2023-05-08T01:06:04.373Z,19.35
2023-05-08T01:08:31.988Z,18.75
2023-05-08T01:11:36.086Z,18.88
2023-05-08T01:14:24.975Z,17.85
2023-05-08T01:17:06.672Z,17.73
2023-05-08T01:19:42.143Z,18.13
2023-05-08T01:22:42.180Z,19.02
2023-05-08T01:25:29.136Z,18.63
2023-05-08T01:28:20.751Z,17.98
2023-05-08T01:31:12.258Z,18.57
2023-05-08T01:33:59.850Z,17.10
2023-05-08T01:36:33.257Z,18.35
2023-05-08T01:39:18.716Z,19.27
2023-05-08T01:42:00.681Z,18.33
2023-05-08T01:44:41.384Z,19.03
2023-05-08T01:47:11.698Z,19.35
2023-05-08T01:49:52.942Z,17.73
2023-05-08T01:52:30.416Z,20.70
2023-05-08T01:55:01.638Z,20.38
2023-05-08T01:57:31.102Z,21.27
2023-05-08T02:00:01.543Z,18.77
2023-05-08T02:02:32.006Z,19.52
2023-05-08T02:05:00.849Z,18.98
2023-05-08T02:07:28.361Z,19.63
2023-05-08T02:09:56.528Z,16.47
2023-05-08T02:12:25.219Z,15.68
2023-05-08T02:14:53.408Z,14.93
2023-05-08T02:17:21.639Z,14.88
2023-05-08T02:19:50.640Z,15.30
2023-05-08T02:22:19.600Z,14.67
2023-05-08T02:24:46.506Z,14.77
2023-05-08T02:27:14.697Z,14.32
2023-05-08T02:29:42.230Z,14.15
2023-05-08T02:32:09.783Z,13.15
2023-05-08T02:34:37.166Z,13.97
2023-05-08T02:37:06.035Z,16.83
2023-05-08T02:39:35.524Z,15.45
2023-05-08T02:42:02.312Z,17.35
2023-05-08T02:44:29.014Z,15.10
2023-05-08T02:47:25.839Z,16.27
2023-05-08T02:50:00.282Z,14.93
2023-05-08T02:52:50.791Z,12.48
2023-05-08T02:55:30.949Z,11.30
2023-05-08T02:58:04.049Z,10.82
2023-05-08T03:00:35.216Z,9.97
2023-05-08T03:03:13.471Z,11.23
2023-05-08T03:05:47.149Z,11.05
2023-05-08T03:08:20.752Z,11.63
2023-05-08T03:10:51.428Z,11.80
2023-05-08T03:13:20.722Z,12.40
2023-05-08T03:15:52.370Z,11.55
2023-05-08T03:18:21.963Z,13.13
2023-05-08T03:20:52.578Z,14.93
2023-05-08T03:23:21.951Z,14.85
2023-05-08T03:25:48.551Z,13.13
2023-05-08T03:28:15.917Z,14.73
2023-05-08T03:30:43.260Z,15.20
2023-05-08T03:33:12.153Z,16.38
2023-05-08T03:35:39.806Z,17.65
2023-05-08T03:38:08.233Z,16.30
2023-05-08T03:40:38.882Z,16.25
2023-05-08T03:43:09.591Z,17.70
2023-05-08T03:45:37.705Z,15.38
2023-05-08T03:48:06.572Z,13.68
2023-05-08T03:50:35.610Z,13.07
2023-05-08T03:53:02.636Z,13.20
2023-05-08T03:55:31.008Z,13.40
2023-05-08T03:58:24.487Z,12.95
2023-05-08T04:01:16.521Z,11.63
2023-05-08T04:03:57.414Z,12.67
2023-05-08T04:06:48.679Z,12.07
2023-05-08T04:09:35.809Z,12.00
2023-05-08T04:12:14.893Z,13.15
2023-05-08T04:14:50.267Z,13.35
2023-05-08T04:17:36.127Z,12.63
2023-05-08T04:20:08.869Z,11.07
2023-05-08T04:22:38.608Z,12.68
2023-05-08T04:25:06.882Z,13.82
2023-05-08T04:27:35.335Z,12.75
2023-05-08T04:30:02.564Z,13.10
2023-05-08T04:32:31.312Z,13.48
2023-05-08T04:34:59.310Z,11.30
2023-05-08T04:37:27.331Z,11.75
2023-05-08T04:39:54.290Z,12.88
2023-05-08T04:42:21.330Z,14.97
2023-05-08T04:44:48.104Z,11.98
2023-05-08T04:47:14.824Z,11.73
2023-05-08T04:49:41.520Z,11.55
2023-05-08T04:52:08.388Z,11.85
2023-05-08T04:54:35.090Z,12.03
2023-05-08T04:57:01.670Z,11.88
2023-05-08T04:59:29.436Z,12.43
2023-05-08T05:01:57.013Z,12.73
2023-05-08T05:04:23.735Z,13.13
2023-05-08T05:06:50.472Z,12.50
2023-05-08T05:09:17.271Z,12.40
2023-05-08T05:11:43.881Z,12.52
2023-05-08T05:14:10.698Z,13.55
2023-05-08T05:16:37.533Z,14.27
2023-05-08T05:19:04.784Z,14.63
2023-05-08T05:21:31.827Z,13.80
2023-05-08T05:23:58.552Z,14.10
2023-05-08T05:26:25.141Z,17.48
2023-05-08T05:28:51.740Z,14.68
2023-05-08T05:31:18.741Z,14.63
2023-05-08T05:33:46.528Z,16.52
2023-05-08T05:36:13.286Z,16.02
2023-05-08T05:38:39.926Z,16.33
2023-05-08T05:41:06.646Z,19.20
2023-05-08T05:43:33.369Z,18.40
2023-05-08T05:46:07.337Z,16.20
2023-05-08T05:48:34.338Z,19.98
2023-05-08T05:51:01.192Z,19.98
2023-05-08T05:53:28.057Z,19.90
2023-05-08T05:55:54.666Z,20.93
2023-05-08T05:58:21.335Z,20.98
2023-05-08T06:00:48.315Z,19.77
2023-05-08T06:03:15.108Z,21.08
2023-05-08T06:05:41.847Z,19.63
2023-05-08T06:08:08.599Z,19.43
2023-05-08T06:10:36.367Z,18.70
2023-05-08T06:13:03.050Z,19.80
2023-05-08T06:15:29.732Z,20.02
2023-05-08T06:17:56.514Z,21.08
2023-05-08T06:20:24.397Z,20.53
2023-05-08T06:22:52.880Z,20.15
2023-05-08T06:25:19.780Z,20.58
2023-05-08T06:27:46.427Z,19.55
2023-05-08T06:30:13.144Z,19.92
2023-05-08T06:32:39.851Z,20.03
2023-05-08T06:35:07.144Z,19.55
2023-05-08T06:37:33.767Z,18.77
2023-05-08T06:40:11.707Z,20.83
2023-05-08T06:42:40.190Z,20.38
2023-05-08T06:45:08.079Z,20.60
2023-05-08T06:47:34.749Z,21.00
2023-05-08T06:50:01.539Z,21.13
2023-05-08T06:52:28.220Z,19.65
2023-05-08T06:54:54.873Z,21.50
2023-05-08T06:57:21.594Z,22.33
2023-05-08T06:59:48.257Z,22.00
2023-05-08T07:02:16.246Z,21.65
2023-05-08T07:04:44.472Z,24.38
2023-05-08T07:07:11.656Z,25.08
2023-05-08T07:09:38.279Z,24.50
2023-05-08T07:12:05.317Z,22.95
2023-05-08T07:14:31.973Z,22.15
2023-05-08T07:16:58.841Z,21.95
2023-05-08T07:19:25.596Z,20.45
2023-05-08T07:21:52.478Z,20.70
2023-05-08T07:24:19.106Z,21.75
2023-05-08T07:26:45.671Z,22.67
2023-05-08T07:29:12.777Z,23.98
2023-05-08T07:31:40.766Z,26.30
2023-05-08T07:34:07.560Z,25.43
2023-05-08T07:36:34.210Z,23.20
2023-05-08T07:39:00.776Z,22.92
2023-05-08T07:41:27.505Z,23.42
2023-05-08T07:43:54.135Z,24.00
2023-05-08T07:46:21.754Z,24.73
2023-05-08T07:48:48.841Z,24.13
2023-05-08T07:51:15.739Z,24.00
2023-05-08T07:53:42.461Z,25.85
2023-05-08T07:56:09.051Z,22.70
2023-05-08T07:58:35.706Z,23.83
2023-05-08T08:01:02.287Z,25.33
2023-05-08T08:03:29.056Z,24.40
2023-05-08T08:05:55.779Z,23.85
2023-05-08T08:08:22.386Z,22.67
2023-05-08T08:10:50.121Z,23.23
2023-05-08T08:13:17.543Z,24.08
2023-05-08T08:15:44.432Z,21.90
2023-05-08T08:18:11.167Z,23.67
2023-05-08T08:20:37.995Z,22.50
2023-05-08T08:23:06.330Z,24.53
2023-05-08T08:25:32.961Z,23.30
2023-05-08T08:27:59.565Z,24.50
2023-05-08T08:30:26.164Z,23.02
2023-05-08T08:32:52.924Z,24.95
2023-05-08T08:35:19.687Z,25.30
2023-05-08T08:37:46.340Z,24.98
2023-05-08T08:40:13.079Z,23.70
2023-05-08T08:42:40.053Z,24.40
2023-05-08T08:45:07.288Z,25.17
2023-05-08T08:47:37.905Z,23.97
2023-05-08T08:50:05.348Z,24.60
2023-05-08T08:52:49.048Z,24.92
2023-05-08T08:55:18.020Z,25.73
2023-05-08T08:57:53.397Z,24.70
2023-05-08T09:00:22.615Z,26.27
2023-05-08T09:02:49.957Z,24.50
2023-05-08T09:05:17.851Z,24.65
2023-05-08T09:07:44.696Z,24.52
2023-05-08T09:10:15.377Z,24.75
2023-05-08T09:12:42.516Z,25.47
2023-05-08T09:15:09.441Z,27.05
2023-05-08T09:17:36.339Z,26.80
2023-05-08T09:20:03.720Z,25.15
2023-05-08T09:22:31.236Z,25.00
2023-05-08T09:24:59.726Z,25.97
2023-05-08T09:27:28.320Z,26.45
2023-05-08T09:30:06.710Z,25.33
2023-05-08T09:32:35.094Z,23.65
2023-05-08T09:35:02.620Z,26.77
2023-05-08T09:37:29.441Z,25.27
2023-05-08T09:40:20.699Z,25.88
2023-05-08T09:42:48.627Z,27.92
2023-05-08T09:45:32.382Z,28.85
2023-05-08T09:47:59.466Z,28.60
2023-05-08T09:50:27.516Z,29.20
2023-05-08T09:52:54.199Z,28.00
2023-05-08T09:55:21.026Z,28.80
2023-05-08T09:57:55.933Z,30.27
2023-05-08T10:00:22.889Z,29.10
2023-05-08T10:03:00.976Z,28.63
2023-05-08T10:05:32.945Z,30.45
2023-05-08T10:08:20.539Z,30.35
2023-05-08T10:10:47.730Z,32.28
2023-05-08T10:13:14.500Z,29.45
2023-05-08T10:15:43.004Z,35.10
2023-05-08T10:18:10.935Z,33.78
2023-05-08T10:20:44.237Z,35.72
2023-05-08T10:23:15.366Z,34.35
2023-05-08T10:25:54.183Z,36.70
2023-05-08T10:28:27.103Z,36.43
2023-05-08T10:30:59.465Z,34.28
2023-05-08T10:33:34.056Z,38.45
2023-05-08T10:36:01.425Z,40.85
2023-05-08T10:38:28.289Z,38.40
2023-05-08T10:40:58.229Z,41.00
2023-05-08T10:43:25.664Z,40.50
2023-05-08T10:45:55.478Z,43.30
2023-05-08T10:48:35.790Z,38.72
2023-05-08T10:51:44.123Z,38.17
2023-05-08T10:54:47.097Z,36.73
2023-05-08T10:57:14.968Z,38.00
2023-05-08T10:59:46.834Z,39.95
2023-05-08T11:02:15.027Z,43.05
2023-05-08T11:04:42.018Z,43.13
2023-05-08T11:07:08.710Z,45.73
2023-05-08T11:10:06.095Z,42.55
2023-05-08T11:12:33.917Z,43.50
2023-05-08T11:15:06.250Z,44.47
2023-05-08T11:17:33.928Z,44.58
2023-05-08T11:20:05.727Z,49.40
2023-05-08T11:22:33.612Z,45.83
2023-05-08T11:25:07.389Z,48.10
2023-05-08T11:27:54.272Z,48.65
2023-05-08T11:30:36.080Z,48.00
2023-05-08T11:33:05.758Z,46.30
2023-05-08T11:35:49.473Z,46.28
2023-05-08T11:38:36.738Z,48.35
2023-05-08T11:41:04.659Z,45.80
2023-05-08T11:43:36.199Z,45.38
2023-05-08T11:46:04.960Z,46.03
2023-05-08T11:48:36.041Z,45.40
2023-05-08T11:51:03.832Z,48.58
2023-05-08T11:53:31.347Z,47.05
2023-05-08T11:55:58.970Z,46.78
2023-05-08T11:58:26.201Z,50.50
2023-05-08T12:00:53.189Z,47.70
2023-05-08T12:03:21.397Z,49.08
2023-05-08T12:05:49.396Z,45.05
2023-05-08T12:08:17.240Z,46.45
2023-05-08T12:10:47.022Z,45.23
2023-05-08T12:13:31.835Z,43.40
2023-05-08T12:16:00.993Z,44.30
2023-05-08T12:18:30.338Z,44.22
2023-05-08T12:20:59.239Z,39.47
2023-05-08T12:23:26.915Z,35.93
2023-05-08T12:25:55.313Z,36.38
2023-05-08T12:28:22.708Z,36.53
2023-05-08T12:30:50.100Z,36.72
2023-05-08T12:33:18.408Z,35.38
2023-05-08T12:35:45.176Z,33.90
2023-05-08T12:38:12.074Z,34.30
2023-05-08T12:40:44.494Z,31.23
2023-05-08T12:43:11.722Z,32.03
2023-05-08T12:45:40.783Z,34.08
2023-05-08T12:48:09.511Z,34.13
2023-05-08T12:50:41.348Z,33.45
2023-05-08T12:53:16.114Z,32.33
2023-05-08T12:55:57.270Z,30.85
2023-05-08T12:58:26.243Z,29.98
2023-05-08T13:00:54.655Z,28.23
2023-05-08T13:03:26.819Z,26.00
2023-05-08T13:05:55.879Z,28.80
2023-05-08T13:08:34.091Z,29.15
2023-05-08T13:11:02.717Z,29.85
2023-05-08T13:13:34.647Z,29.47
2023-05-08T13:16:06.443Z,30.83
2023-05-08T13:18:33.788Z,30.88
2023-05-08T13:21:02.061Z,31.45
2023-05-08T13:23:28.954Z,31.15
2023-05-08T13:25:56.116Z,29.60
2023-05-08T13:28:22.835Z,28.20
2023-05-08T13:30:49.490Z,30.02
2023-05-08T13:33:16.077Z,30.10
2023-05-08T13:35:42.761Z,30.58
2023-05-08T13:38:09.382Z,29.40
2023-05-08T13:40:36.085Z,27.42
2023-05-08T13:43:02.643Z,27.27
2023-05-08T13:45:29.368Z,28.98
2023-05-08T13:47:56.053Z,28.70
2023-05-08T13:50:22.925Z,31.10
2023-05-08T13:52:52.215Z,29.30
2023-05-08T13:55:22.179Z,30.20
2023-05-08T13:57:48.910Z,29.33
2023-05-08T14:00:15.898Z,27.88
2023-05-08T14:02:42.539Z,26.95
2023-05-08T14:05:09.500Z,28.77
2023-05-08T14:07:36.274Z,27.88
2023-05-08T14:10:03.437Z,26.33
2023-05-08T14:12:30.250Z,26.90
2023-05-08T14:14:56.941Z,26.17
2023-05-08T14:17:23.757Z,26.95
2023-05-08T14:19:50.503Z,26.40
2023-05-08T14:22:17.173Z,24.00
2023-05-08T14:24:44.337Z,24.08
2023-05-08T14:27:11.141Z,24.50
2023-05-08T14:29:37.814Z,23.52
2023-05-08T14:32:04.877Z,25.70
2023-05-08T14:34:31.503Z,24.63
2023-05-08T14:36:58.118Z,26.20
2023-05-08T14:39:24.756Z,24.97
2023-05-08T14:42:14.238Z,25.10
2023-05-08T14:44:38.268Z,23.75
2023-05-08T14:47:05.060Z,25.80
2023-05-08T14:49:37.966Z,22.92
2023-05-08T14:52:06.677Z,26.00
2023-05-08T14:54:33.851Z,24.42
2023-05-08T14:57:00.620Z,25.98
2023-05-08T14:59:27.248Z,27.17
2023-05-08T15:01:53.970Z,27.13
2023-05-08T15:04:20.887Z,25.13
2023-05-08T15:06:47.636Z,25.75
2023-05-08T15:09:16.289Z,23.85
2023-05-08T15:11:43.015Z,24.98
2023-05-08T15:14:09.980Z,26.45
2023-05-08T15:16:36.724Z,26.80
2023-05-08T15:19:03.433Z,25.80
2023-05-08T15:21:30.081Z,25.02
2023-05-08T15:23:56.683Z,24.92
2023-05-08T15:26:23.444Z,24.67
2023-05-08T15:28:50.846Z,25.73
2023-05-08T15:31:18.178Z,24.02
2023-05-08T15:33:45.200Z,24.60
2023-05-08T15:36:13.574Z,23.58
2023-05-08T15:38:40.981Z,25.65
2023-05-08T15:41:07.744Z,26.80
2023-05-08T15:43:34.381Z,25.63
2023-05-08T15:46:01.086Z,26.27
2023-05-08T15:48:27.811Z,23.95
2023-05-08T15:50:54.471Z,24.50
2023-05-08T15:53:21.124Z,24.58
2023-05-08T15:55:47.846Z,24.27
2023-05-08T15:58:14.417Z,26.48
2023-05-08T16:00:45.139Z,27.48
2023-05-08T16:03:12.477Z,25.85
2023-05-08T16:05:39.492Z,26.38
2023-05-08T16:08:06.274Z,25.05
2023-05-08T16:10:32.878Z,26.00
2023-05-08T16:12:59.551Z,26.52
2023-05-08T16:15:26.213Z,25.95
2023-05-08T16:17:52.920Z,28.53
2023-05-08T16:20:19.892Z,28.15
2023-05-08T16:22:46.542Z,26.70
2023-05-08T16:25:13.356Z,27.20
2023-05-08T16:27:40.268Z,28.60
2023-05-08T16:30:07.562Z,30.17
2023-05-08T16:32:34.212Z,33.85
2023-05-08T16:35:00.908Z,34.20
2023-05-08T16:37:27.547Z,33.83
2023-05-08T16:39:54.253Z,33.38
2023-05-08T16:42:20.903Z,33.97
2023-05-08T16:44:47.619Z,38.28
2023-05-08T16:47:14.497Z,40.75
2023-05-08T16:49:41.235Z,40.72
2023-05-08T16:52:08.269Z,42.08
2023-05-08T16:54:34.947Z,44.73
2023-05-08T16:57:01.694Z,46.70
2023-05-08T16:59:28.431Z,46.70
2023-05-08T17:01:55.377Z,49.67
2023-05-08T17:04:21.993Z,48.88
2023-05-08T17:06:48.653Z,49.90
2023-05-08T17:09:16.518Z,49.40
2023-05-08T17:11:43.161Z,49.80
2023-05-08T17:14:09.758Z,50.60
2023-05-08T17:16:36.513Z,48.45
2023-05-08T17:19:03.376Z,48.50
2023-05-08T17:21:31.972Z,50.55
2023-05-08T17:24:01.877Z,51.80
2023-05-08T17:26:32.634Z,51.50
2023-05-08T17:28:59.509Z,51.45
2023-05-08T17:31:26.123Z,50.20
2023-05-08T17:33:52.723Z,49.17
2023-05-08T17:36:19.383Z,46.83
2023-05-08T17:38:47.201Z,47.33
2023-05-08T17:41:14.465Z,45.05
2023-05-08T17:43:41.161Z,46.83
2023-05-08T17:46:07.986Z,47.38
2023-05-08T17:48:35.198Z,44.42
2023-05-08T17:51:03.041Z,43.40
2023-05-08T17:53:33.321Z,44.60
2023-05-08T17:55:59.932Z,43.53
2023-05-08T17:58:26.678Z,49.25
2023-05-08T18:00:53.991Z,50.80
2023-05-08T18:03:21.332Z,49.85
2023-05-08T18:05:47.999Z,52.22
2023-05-08T18:08:14.607Z,50.83
2023-05-08T18:10:41.287Z,48.60
2023-05-08T18:13:08.070Z,50.83
2023-05-08T18:15:36.096Z,52.10
2023-05-08T18:18:02.965Z,50.10
2023-05-08T18:20:29.634Z,51.77
2023-05-08T18:22:56.295Z,49.08
2023-05-08T18:25:22.867Z,49.47
2023-05-08T18:27:50.528Z,49.92
2023-05-08T18:30:17.366Z,47.55
2023-05-08T18:32:44.111Z,47.20
2023-05-08T18:35:10.852Z,48.53
2023-05-08T18:37:37.470Z,49.15
2023-05-08T18:40:05.086Z,47.35
2023-05-08T18:42:31.737Z,47.15
2023-05-08T18:45:00.231Z,47.63
2023-05-08T18:47:26.966Z,45.03
2023-05-08T18:49:53.760Z,44.17
2023-05-08T18:52:20.401Z,44.92
2023-05-08T18:54:46.973Z,47.05
2023-05-08T18:57:13.593Z,45.87
2023-05-08T18:59:40.435Z,44.08
2023-05-08T19:02:07.135Z,44.50
2023-05-08T19:04:33.794Z,45.47
2023-05-08T19:07:00.821Z,44.80
2023-05-08T19:09:28.660Z,49.00
2023-05-08T19:11:55.272Z,48.85
2023-05-08T19:14:21.853Z,49.90
2023-05-08T19:16:48.448Z,47.15
2023-05-08T19:19:15.177Z,45.10
2023-05-08T19:21:41.793Z,45.23
2023-05-08T19:24:08.625Z,45.20
2023-05-08T19:26:35.461Z,45.70
2023-05-08T19:29:02.126Z,46.03
2023-05-08T19:31:28.799Z,45.70
2023-05-08T19:33:57.138Z,44.53
2023-05-08T19:36:23.797Z,44.97
2023-05-08T19:38:50.414Z,42.72
2023-05-08T19:41:17.845Z,42.30
2023-05-08T19:43:44.556Z,42.67
2023-05-08T19:46:11.227Z,42.53
2023-05-08T19:48:37.957Z,45.28
2023-05-08T19:51:08.835Z,41.90
2023-05-08T19:53:35.802Z,42.15
2023-05-08T19:56:02.589Z,42.22
2023-05-08T19:58:29.232Z,43.97
2023-05-08T20:00:55.860Z,42.33
2023-05-08T20:03:22.617Z,42.85
2023-05-08T20:05:51.604Z,42.20
2023-05-08T20:08:18.727Z,41.17
2023-05-08T20:10:48.814Z,40.47
2023-05-08T20:13:16.868Z,40.38
2023-05-08T20:15:43.528Z,42.67
2023-05-08T20:18:10.492Z,42.70
2023-05-08T20:20:37.153Z,41.67
2023-05-08T20:23:04.336Z,41.43
2023-05-08T20:25:31.168Z,44.33
2023-05-08T20:27:57.862Z,41.95
2023-05-08T20:30:24.554Z,41.75
2023-05-08T20:32:51.209Z,40.33
2023-05-08T20:35:17.829Z,39.27
2023-05-08T20:37:45.749Z,37.47
2023-05-08T20:40:12.754Z,35.95
2023-05-08T20:42:41.105Z,33.22
2023-05-08T20:45:09.015Z,32.25
2023-05-08T20:47:36.237Z,31.63
2023-05-08T20:50:03.624Z,29.30
2023-05-08T20:52:32.163Z,28.95
2023-05-08T20:54:59.553Z,28.50
2023-05-08T20:57:26.344Z,28.05
2023-05-08T20:59:52.972Z,28.57
2023-05-08T21:02:19.625Z,28.80
2023-05-08T21:04:46.389Z,27.17
2023-05-08T21:07:13.118Z,28.48
2023-05-08T21:09:39.788Z,27.65
2023-05-08T21:12:06.746Z,27.23
2023-05-08T21:14:34.847Z,28.17
2023-05-08T21:17:01.573Z,29.02
2023-05-08T21:19:28.225Z,31.30
2023-05-08T21:21:54.771Z,32.60
2023-05-08T21:24:21.586Z,31.10
2023-05-08T21:26:48.180Z,30.13
2023-05-08T21:29:14.835Z,30.05
2023-05-08T21:31:41.991Z,29.05
2023-05-08T21:34:08.838Z,28.75
2023-05-08T21:36:35.658Z,30.33
2023-05-08T21:39:04.036Z,27.83
2023-05-08T21:41:30.784Z,28.13
2023-05-08T21:43:57.352Z,28.42
2023-05-08T21:46:24.026Z,29.83
2023-05-08T21:48:50.825Z,27.90
2023-05-08T21:51:17.450Z,28.48
2023-05-08T21:53:43.999Z,28.55
2023-05-08T21:56:10.636Z,27.45
2023-05-08T21:58:37.332Z,28.08
2023-05-08T22:01:04.049Z,27.80
2023-05-08T22:03:31.468Z,26.67
2023-05-08T22:05:58.182Z,27.52
2023-05-08T22:08:24.772Z,28.42
2023-05-08T22:10:51.378Z,27.77
2023-05-08T22:13:17.991Z,26.97
2023-05-08T22:15:44.719Z,26.92
2023-05-08T22:18:11.383Z,27.73
2023-05-08T22:20:38.037Z,26.50
2023-05-08T22:23:04.664Z,26.40
2023-05-08T22:25:31.418Z,27.27
2023-05-08T22:27:58.318Z,27.45
2023-05-08T22:30:24.908Z,28.75
2023-05-08T22:32:57.145Z,27.60
2023-05-08T22:35:25.919Z,27.52
2023-05-08T22:37:53.384Z,27.03
2023-05-08T22:40:20.865Z,26.10
2023-05-08T22:42:48.183Z,27.70
2023-05-08T22:45:15.191Z,28.42
2023-05-08T22:47:42.160Z,27.88
2023-05-08T22:50:09.339Z,26.03
2023-05-08T22:52:36.604Z,28.77
2023-05-08T22:55:04.459Z,27.30
2023-05-08T22:57:31.231Z,26.85
2023-05-08T22:59:57.831Z,28.45
2023-05-08T23:02:24.435Z,26.93
2023-05-08T23:04:51.499Z,26.92
2023-05-08T23:07:18.281Z,27.00
2023-05-08T23:09:44.897Z,27.20
2023-05-08T23:12:11.492Z,28.30
2023-05-08T23:14:38.108Z,27.30
2023-05-08T23:17:04.769Z,26.75
2023-05-08T23:19:31.505Z,26.92
2023-05-08T23:21:58.139Z,28.98
2023-05-08T23:24:24.812Z,29.13
2023-05-08T23:26:52.509Z,28.23
2023-05-08T23:29:19.058Z,28.00
2023-05-08T23:31:46.037Z,29.63
2023-05-08T23:34:12.770Z,26.73
2023-05-08T23:36:39.431Z,26.85
2023-05-08T23:39:07.084Z,27.37
2023-05-08T23:41:34.123Z,26.17
2023-05-08T23:44:00.760Z,25.02
2023-05-08T23:46:27.346Z,26.55
2023-05-08T23:48:54.008Z,27.55
2023-05-08T23:51:21.489Z,27.37
2023-05-08T23:53:48.926Z,26.52
2023-05-08T23:56:15.725Z,27.98
2023-05-08T23:58:42.528Z,28.02
